Time;durP1;ratioP1;P1;durP2;ratioP2;P2;SDS_P1;SDS_P2;PMS_P1;PMS_P2;Temp;Humidity;BMP_temperature;BMP_pressure;BME280_temperature;BME280_humidity;BME280_pressure;Samples;Min_cycle;Max_cycle;Signal;HPM_P1;HPM_P2
2022/08/18 00:01:25;;;;;;;11.43;10.40;;;;;;;;;;5058367;28;20227;-73
2022/08/18 00:03:55;;;;;;;11.95;11.00;;;;;;;;;;5054687;28;20219;-74
2022/08/18 00:06:21;;;;;;;12.63;11.60;;;;;;;;;;5048640;28;20613;-74
2022/08/18 00:08:46;;;;;;;12.65;11.55;;;;;;;;;;5075062;28;20215;-74
2022/08/18 00:11:14;;;;;;;12.55;11.48;;;;;;;;;;5082338;28;20287;-74
2022/08/18 00:13:42;;;;;;;12.30;11.40;;;;;;;;;;5035085;28;20244;-75
2022/08/18 00:16:10;;;;;;;12.43;11.27;;;;;;;;;;5086718;28;20279;-75
2022/08/18 00:18:37;;;;;;;12.40;11.30;;;;;;;;;;5062606;28;20310;-74
2022/08/18 00:21:03;;;;;;;12.68;11.68;;;;;;;;;;5061253;28;20229;-73
2022/08/18 00:23:31;;;;;;;12.48;11.48;;;;;;;;;;5041010;28;20219;-75
2022/08/18 00:25:58;;;;;;;12.48;11.65;;;;;;;;;;5059019;28;20219;-75
2022/08/18 00:28:23;;;;;;;12.80;11.68;;;;;;;;;;5067108;28;20226;-74
2022/08/18 00:30:56;;;;;;;14.20;12.65;;;;;;;;;;5068321;28;20233;-74
2022/08/18 00:33:24;;;;;;;12.75;11.82;;;;;;;;;;5039132;28;20219;-74
2022/08/18 00:35:49;;;;;;;13.45;12.35;;;;;;;;;;5064698;28;20641;-74
2022/08/18 00:38:15;;;;;;;13.52;12.52;;;;;;;;;;5056125;28;20275;-74
2022/08/18 00:40:48;;;;;;;13.70;12.52;;;;;;;;;;5062877;28;20233;-74
2022/08/18 00:43:20;;;;;;;13.80;12.70;;;;;;;;;;5078470;28;21048;-74
2022/08/18 00:45:48;;;;;;;14.43;13.32;;;;;;;;;;5067396;28;20221;-74
2022/08/18 00:48:18;;;;;;;14.68;13.57;;;;;;;;;;5057979;28;20210;-74
2022/08/18 00:50:49;;;;;;;14.30;13.10;;;;;;;;;;5058986;28;20735;-74
2022/08/18 00:53:26;;;;;;;14.57;13.20;;;;;;;;;;5077547;28;20724;-74
2022/08/18 00:55:51;;;;;;;13.60;12.30;;;;;;;;;;5063560;28;20303;-74
2022/08/18 00:58:21;;;;;;;13.80;12.55;;;;;;;;;;5060241;28;20214;-74
2022/08/18 01:00:49;;;;;;;13.40;12.40;;;;;;;;;;5075468;28;20214;-74
2022/08/18 01:03:18;;;;;;;13.30;12.30;;;;;;;;;;5059944;28;20283;-74
2022/08/18 01:05:49;;;;;;;12.73;11.63;;;;;;;;;;5067710;28;20226;-74
2022/08/18 01:08:14;;;;;;;13.15;12.15;;;;;;;;;;5083967;28;20218;-74
2022/08/18 01:10:42;;;;;;;13.50;12.52;;;;;;;;;;5068417;28;20222;-74
2022/08/18 01:13:10;;;;;;;14.73;13.63;;;;;;;;;;5034350;28;20664;-74
2022/08/18 01:15:36;;;;;;;15.13;13.82;;;;;;;;;;5056524;28;20241;-74
2022/08/18 01:23:52;;;;;;;12.77;11.82;;;;;;;;;;5076359;28;20222;-74
2022/08/18 01:26:21;;;;;;;13.60;12.50;;;;;;;;;;5048644;28;20214;-74
2022/08/18 01:28:52;;;;;;;13.88;12.77;;;;;;;;;;5045493;28;20227;-74
2022/08/18 01:31:33;;;;;;;13.35;12.23;;;;;;;;;;5041597;28;20219;-74
2022/08/18 01:34:03;;;;;;;14.73;13.43;;;;;;;;;;5058004;28;20222;-74
2022/08/18 01:36:28;;;;;;;15.55;14.13;;;;;;;;;;5051349;28;20907;-74
2022/08/18 01:38:54;;;;;;;14.32;12.93;;;;;;;;;;5040031;28;20366;-74
2022/08/18 01:41:23;;;;;;;15.27;13.90;;;;;;;;;;5074916;28;20277;-75
2022/08/18 01:43:48;;;;;;;13.63;12.52;;;;;;;;;;5057099;28;20222;-74
2022/08/18 01:46:18;;;;;;;13.85;12.93;;;;;;;;;;5057653;28;20514;-75
2022/08/18 01:48:44;;;;;;;12.80;11.73;;;;;;;;;;5038914;28;20276;-74
2022/08/18 01:51:11;;;;;;;12.63;11.52;;;;;;;;;;5072608;28;20508;-75
2022/08/18 01:53:37;;;;;;;11.68;10.77;;;;;;;;;;5075054;28;20211;-74
2022/08/18 01:56:04;;;;;;;10.10;9.40;;;;;;;;;;5066885;28;20237;-75
2022/08/18 01:58:33;;;;;;;8.98;8.38;;;;;;;;;;5078361;28;20222;-74
2022/08/18 02:01:00;;;;;;;9.02;7.97;;;;;;;;;;5032197;28;20260;-74
2022/08/18 02:03:31;;;;;;;8.43;7.93;;;;;;;;;;5058224;28;20242;-74
2022/08/18 02:05:59;;;;;;;8.77;8.18;;;;;;;;;;5068530;28;20224;-74
2022/08/18 02:08:27;;;;;;;9.77;9.07;;;;;;;;;;5046830;28;20225;-74
2022/08/18 02:10:57;;;;;;;9.73;9.02;;;;;;;;;;5039748;28;20786;-74
2022/08/18 02:13:24;;;;;;;10.18;9.48;;;;;;;;;;5046172;28;20527;-74
2022/08/18 02:15:51;;;;;;;9.88;9.18;;;;;;;;;;5071465;28;20226;-74
2022/08/18 02:18:23;;;;;;;9.95;9.25;;;;;;;;;;5081093;28;20218;-73
2022/08/18 02:20:51;;;;;;;9.05;8.38;;;;;;;;;;5049148;28;20236;-74
2022/08/18 02:23:19;;;;;;;10.55;9.75;;;;;;;;;;5044563;28;20268;-74
2022/08/18 02:25:47;;;;;;;9.32;8.68;;;;;;;;;;5083633;28;20625;-73
2022/08/18 02:28:12;;;;;;;9.70;9.00;;;;;;;;;;5072697;28;20225;-74
2022/08/18 02:30:40;;;;;;;10.38;9.48;;;;;;;;;;5077914;28;20225;-73
2022/08/18 02:33:09;;;;;;;8.15;7.65;;;;;;;;;;5048659;28;20215;-74
2022/08/18 02:35:37;;;;;;;9.35;8.57;;;;;;;;;;5048860;28;20223;-74
2022/08/18 02:38:06;;;;;;;8.80;8.18;;;;;;;;;;5030999;28;20210;-74
2022/08/18 02:40:33;;;;;;;8.80;8.20;;;;;;;;;;5056717;28;20231;-73
2022/08/18 02:43:04;;;;;;;8.10;7.60;;;;;;;;;;5076083;28;20278;-73
2022/08/18 02:45:29;;;;;;;8.48;7.88;;;;;;;;;;5058930;28;20230;-75
2022/08/18 02:47:57;;;;;;;8.13;7.55;;;;;;;;;;5069387;28;20215;-75
2022/08/18 02:50:25;;;;;;;8.23;7.63;;;;;;;;;;5066851;28;20935;-75
2022/08/18 02:52:50;;;;;;;8.93;6.80;;;;;;;;;;5055281;28;20228;-75
2022/08/18 02:55:16;;;;;;;8.07;7.55;;;;;;;;;;5049716;28;20226;-75
2022/08/18 02:57:45;;;;;;;9.50;8.80;;;;;;;;;;5077623;28;20634;-74
2022/08/18 03:00:17;;;;;;;8.45;7.88;;;;;;;;;;5060568;28;20210;-74
2022/08/18 03:02:50;;;;;;;8.43;7.85;;;;;;;;;;5049334;28;20268;-74
2022/08/18 03:05:15;;;;;;;8.27;7.55;;;;;;;;;;5048903;28;20226;-75
2022/08/18 03:07:41;;;;;;;7.47;7.05;;;;;;;;;;5061390;28;20692;-74
2022/08/18 03:10:08;;;;;;;8.48;7.88;;;;;;;;;;5059265;28;20218;-75
2022/08/18 03:12:37;;;;;;;7.90;7.40;;;;;;;;;;5065111;28;20225;-75
2022/08/18 03:15:03;;;;;;;7.43;6.93;;;;;;;;;;5031149;28;20223;-74
2022/08/18 03:17:28;;;;;;;8.15;7.65;;;;;;;;;;5041320;28;20594;-74
2022/08/18 03:19:58;;;;;;;8.70;7.90;;;;;;;;;;5054261;28;20713;-74
2022/08/18 03:22:27;;;;;;;7.57;7.07;;;;;;;;;;5063576;28;20301;-74
2022/08/18 03:24:57;;;;;;;8.32;7.68;;;;;;;;;;5025392;28;20572;-74
2022/08/18 03:27:25;;;;;;;8.45;7.78;;;;;;;;;;5044421;28;20683;-74
2022/08/18 03:29:51;;;;;;;8.70;8.10;;;;;;;;;;5024178;28;20668;-74
2022/08/18 03:32:21;;;;;;;9.52;8.80;;;;;;;;;;5035861;28;20253;-73
2022/08/18 03:34:47;;;;;;;8.30;7.70;;;;;;;;;;5054814;28;20218;-74
2022/08/18 03:37:15;;;;;;;9.35;8.75;;;;;;;;;;5039761;28;20248;-73
2022/08/18 03:39:42;;;;;;;9.80;9.10;;;;;;;;;;5065373;28;20231;-73
2022/08/18 03:42:11;;;;;;;10.30;9.60;;;;;;;;;;5023328;28;20309;-73
2022/08/18 03:44:36;;;;;;;10.48;9.77;;;;;;;;;;5031320;28;20234;-73
2022/08/18 03:47:04;;;;;;;12.38;11.57;;;;;;;;;;5041354;28;20231;-74
2022/08/18 03:49:33;;;;;;;12.45;11.52;;;;;;;;;;5047906;28;20225;-74
2022/08/18 03:52:01;;;;;;;13.35;12.10;;;;;;;;;;5023974;28;20310;-74
2022/08/18 03:54:27;;;;;;;12.15;11.27;;;;;;;;;;5031454;28;20284;-74
2022/08/18 03:56:54;;;;;;;8.57;7.97;;;;;;;;;;5043985;28;20214;-74
2022/08/18 03:59:25;;;;;;;12.20;10.95;;;;;;;;;;5055568;28;20283;-74
2022/08/18 04:01:52;;;;;;;10.63;9.93;;;;;;;;;;5047764;28;20254;-74
2022/08/18 04:04:27;;;;;;;11.32;10.43;;;;;;;;;;5046985;28;20947;-74
2022/08/18 04:06:57;;;;;;;14.27;13.27;;;;;;;;;;5047267;28;20214;-74
2022/08/18 04:09:28;;;;;;;7.07;6.57;;;;;;;;;;5044048;28;20227;-75
2022/08/18 04:11:57;;;;;;;6.82;6.38;;;;;;;;;;5061044;28;20226;-74
2022/08/18 04:14:30;;;;;;;6.90;6.40;;;;;;;;;;5027081;28;20214;-74
2022/08/18 04:16:56;;;;;;;7.40;6.90;;;;;;;;;;5050720;28;20217;-74
2022/08/18 04:19:26;;;;;;;7.07;6.55;;;;;;;;;;5025150;28;20230;-74
2022/08/18 04:21:52;;;;;;;9.23;8.40;;;;;;;;;;5034561;28;20250;-75
2022/08/18 04:24:19;;;;;;;9.35;8.63;;;;;;;;;;5043353;28;20305;-74
2022/08/18 04:26:46;;;;;;;13.43;12.13;;;;;;;;;;5065290;28;20252;-74
2022/08/18 04:29:19;;;;;;;13.15;11.85;;;;;;;;;;5045753;28;20210;-74
2022/08/18 04:31:44;;;;;;;18.27;16.55;;;;;;;;;;5036756;28;20222;-73
2022/08/18 04:34:14;;;;;;;28.67;21.02;;;;;;;;;;5049576;28;20222;-74
2022/08/18 04:36:42;;;;;;;31.70;28.48;;;;;;;;;;5050964;28;20226;-74
2022/08/18 04:39:09;;;;;;;38.90;34.83;;;;;;;;;;5051611;28;20291;-74
2022/08/18 04:41:37;;;;;;;47.85;40.30;;;;;;;;;;5034650;28;20230;-74
2022/08/18 04:44:06;;;;;;;53.10;44.63;;;;;;;;;;5042502;28;20570;-73
2022/08/18 04:46:40;;;;;;;51.47;45.72;;;;;;;;;;5053156;28;20475;-75
2022/08/18 04:49:06;;;;;;;53.47;48.13;;;;;;;;;;5035403;28;20245;-74
2022/08/18 04:51:32;;;;;;;54.38;48.67;;;;;;;;;;5023513;28;20314;-73
2022/08/18 04:54:00;;;;;;;54.33;48.72;;;;;;;;;;5030398;28;20309;-75
2022/08/18 04:56:31;;;;;;;54.55;49.03;;;;;;;;;;5047337;28;20253;-75
2022/08/18 04:59:05;;;;;;;56.13;49.97;;;;;;;;;;5053100;28;20217;-75
2022/08/18 05:01:38;;;;;;;56.75;50.65;;;;;;;;;;5062155;28;20765;-76
2022/08/18 05:04:07;;;;;;;55.78;49.75;;;;;;;;;;5029636;28;20224;-76
2022/08/18 05:06:33;;;;;;;56.15;50.35;;;;;;;;;;5053787;28;20278;-76
2022/08/18 05:09:01;;;;;;;58.28;51.30;;;;;;;;;;5062725;28;20260;-77
2022/08/18 05:11:32;;;;;;;56.78;50.70;;;;;;;;;;5062138;28;20229;-76
2022/08/18 05:13:57;;;;;;;58.17;52.20;;;;;;;;;;5061802;28;20276;-76
2022/08/18 05:16:24;;;;;;;58.15;51.95;;;;;;;;;;5073410;28;20210;-76
2022/08/18 05:18:54;;;;;;;56.55;50.58;;;;;;;;;;5049320;28;20229;-76
2022/08/18 05:21:24;;;;;;;55.13;49.35;;;;;;;;;;5032905;28;20233;-77
2022/08/18 05:23:54;;;;;;;56.53;50.55;;;;;;;;;;5034225;28;20649;-75
2022/08/18 05:26:19;;;;;;;56.58;50.67;;;;;;;;;;5058647;28;20543;-75
2022/08/18 05:28:48;;;;;;;52.72;47.38;;;;;;;;;;5073044;28;20225;-75
2022/08/18 05:31:18;;;;;;;52.75;47.25;;;;;;;;;;5044100;28;20230;-76
2022/08/18 05:33:46;;;;;;;51.60;46.35;;;;;;;;;;5047634;28;20603;-75
2022/08/18 05:36:45;;;;;;;50.20;45.03;;;;;;;;;;5030617;28;20242;-75
2022/08/18 05:39:25;;;;;;;50.53;45.05;;;;;;;;;;5061554;28;20226;-76
2022/08/18 05:42:15;;;;;;;51.95;46.30;;;;;;;;;;5062027;28;20233;-75
2022/08/18 05:44:47;;;;;;;51.10;45.67;;;;;;;;;;5050408;28;20229;-75
2022/08/18 05:47:16;;;;;;;51.05;45.40;;;;;;;;;;5046903;28;20226;-76
2022/08/18 05:49:42;;;;;;;51.90;46.42;;;;;;;;;;5083137;28;20315;-76
2022/08/18 05:52:37;;;;;;;50.83;45.40;;;;;;;;;;5044344;28;20664;-76
2022/08/18 05:58:06;;;;;;;46.05;41.35;;;;;;;;;;5029707;28;20234;-76
2022/08/18 06:00:33;;;;;;;43.65;39.22;;;;;;;;;;5054548;28;20234;-75
2022/08/18 06:03:11;;;;;;;44.92;40.70;;;;;;;;;;5055843;28;20631;-75
2022/08/18 06:05:51;;;;;;;43.67;39.13;;;;;;;;;;5068151;28;20225;-75
2022/08/18 06:08:16;;;;;;;42.22;37.72;;;;;;;;;;5050541;28;20677;-74
2022/08/18 06:10:51;;;;;;;41.30;37.20;;;;;;;;;;5046689;28;20214;-76
2022/08/18 06:13:19;;;;;;;42.72;38.53;;;;;;;;;;5027526;28;20317;-75
2022/08/18 06:15:54;;;;;;;42.15;38.10;;;;;;;;;;5055219;28;20226;-74
2022/08/18 06:18:40;;;;;;;41.22;37.20;;;;;;;;;;5065058;28;20225;-75
2022/08/18 06:21:15;;;;;;;40.33;36.42;;;;;;;;;;5075268;28;20302;-75
2022/08/18 06:23:57;;;;;;;41.92;37.63;;;;;;;;;;5043280;28;20226;-75
2022/08/18 06:26:36;;;;;;;41.50;37.58;;;;;;;;;;5032409;28;20697;-75
2022/08/18 06:29:25;;;;;;;42.10;37.50;;;;;;;;;;5074642;28;20237;-75
2022/08/18 06:32:06;;;;;;;41.53;37.40;;;;;;;;;;5064963;28;20222;-75
2022/08/18 06:35:13;;;;;;;40.78;37.03;;;;;;;;;;5077700;28;20271;-75
2022/08/18 06:40:31;;;;;;;41.58;37.28;;;;;;;;;;5048678;28;20225;-76
2022/08/18 06:42:56;;;;;;;40.80;36.72;;;;;;;;;;5049727;28;20714;-76
2022/08/18 06:45:31;;;;;;;41.03;36.72;;;;;;;;;;5025690;28;20725;-76
2022/08/18 06:48:04;;;;;;;42.88;38.45;;;;;;;;;;5050063;28;20217;-76
2022/08/18 06:50:33;;;;;;;40.13;36.45;;;;;;;;;;5043270;28;20249;-76
2022/08/18 06:53:05;;;;;;;39.92;35.72;;;;;;;;;;5053837;28;20304;-76
2022/08/18 06:55:35;;;;;;;40.30;35.85;;;;;;;;;;5058996;28;20238;-76
2022/08/18 06:58:06;;;;;;;41.15;36.97;;;;;;;;;;5043394;28;20585;-76
2022/08/18 07:00:33;;;;;;;39.70;35.63;;;;;;;;;;5058609;28;20686;-77
2022/08/18 07:03:08;;;;;;;38.08;34.42;;;;;;;;;;5041645;28;20305;-77
2022/08/18 07:05:34;;;;;;;38.55;34.88;;;;;;;;;;5062357;28;20218;-77
2022/08/18 07:08:17;;;;;;;38.17;34.60;;;;;;;;;;5072400;28;20272;-76
2022/08/18 07:10:44;;;;;;;37.90;34.17;;;;;;;;;;5049550;28;20229;-76
2022/08/18 07:13:26;;;;;;;36.22;32.60;;;;;;;;;;5047844;28;20212;-75
2022/08/18 07:16:32;;;;;;;34.20;30.75;;;;;;;;;;5037014;28;20289;-76
2022/08/18 07:19:29;;;;;;;36.80;33.17;;;;;;;;;;5056314;28;20216;-76
2022/08/18 07:22:02;;;;;;;35.58;32.28;;;;;;;;;;5059760;28;20222;-76
2022/08/18 07:24:32;;;;;;;35.70;32.25;;;;;;;;;;5046381;28;20246;-76
2022/08/18 07:27:17;;;;;;;34.25;31.15;;;;;;;;;;5027047;28;20222;-77
2022/08/18 07:29:58;;;;;;;35.17;31.98;;;;;;;;;;5066287;28;20222;-75
2022/08/18 07:32:27;;;;;;;34.13;30.88;;;;;;;;;;5074695;28;20265;-76
2022/08/18 07:34:56;;;;;;;34.75;31.52;;;;;;;;;;5059421;28;20297;-75
2022/08/18 07:37:26;;;;;;;35.85;32.22;;;;;;;;;;5067263;28;20232;-75
2022/08/18 07:40:20;;;;;;;34.10;30.70;;;;;;;;;;5051236;28;20276;-75
2022/08/18 07:42:57;;;;;;;34.08;30.58;;;;;;;;;;5065342;28;20221;-75
2022/08/18 07:45:41;;;;;;;33.97;30.58;;;;;;;;;;5048287;28;20258;-76
2022/08/18 07:48:29;;;;;;;33.75;30.15;;;;;;;;;;5057537;28;20683;-76
2022/08/18 07:51:07;;;;;;;33.17;29.85;;;;;;;;;;5049152;28;20219;-75
2022/08/18 07:54:10;;;;;;;31.35;28.27;;;;;;;;;;5080018;28;20214;-75
2022/08/18 07:56:45;;;;;;;31.83;28.65;;;;;;;;;;5030308;28;20232;-75
2022/08/18 07:59:46;;;;;;;29.90;27.02;;;;;;;;;;5080521;28;20245;-75
2022/08/18 08:02:16;;;;;;;26.83;24.40;;;;;;;;;;5057231;28;20749;-75
2022/08/18 08:05:06;;;;;;;28.30;25.60;;;;;;;;;;5069859;28;20222;-75
2022/08/18 08:07:40;;;;;;;27.27;24.60;;;;;;;;;;5068990;28;20295;-75
2022/08/18 08:10:29;;;;;;;26.20;23.67;;;;;;;;;;5041900;28;20255;-74
2022/08/18 08:13:16;;;;;;;26.63;23.50;;;;;;;;;;5051908;28;20242;-74
2022/08/18 08:15:52;;;;;;;26.15;23.75;;;;;;;;;;5086753;28;20235;-75
2022/08/18 08:18:28;;;;;;;26.75;24.15;;;;;;;;;;5073811;28;20221;-75
2022/08/18 08:20:57;;;;;;;24.92;22.60;;;;;;;;;;5047938;28;20290;-75
2022/08/18 08:23:46;;;;;;;25.90;23.15;;;;;;;;;;5049037;28;20336;-76
2022/08/18 08:26:37;;;;;;;24.17;22.08;;;;;;;;;;5067871;28;20302;-75
2022/08/18 08:29:03;;;;;;;22.92;20.63;;;;;;;;;;5073079;28;20229;-75
2022/08/18 08:31:43;;;;;;;23.70;21.55;;;;;;;;;;5056666;28;20226;-76
2022/08/18 08:34:26;;;;;;;23.23;21.13;;;;;;;;;;5059893;28;20733;-75
2022/08/18 08:37:02;;;;;;;23.25;20.90;;;;;;;;;;5047146;28;20247;-75
2022/08/18 08:39:43;;;;;;;23.23;21.00;;;;;;;;;;5041346;28;20542;-75
2022/08/18 08:42:22;;;;;;;24.15;21.80;;;;;;;;;;5050245;28;20591;-76
2022/08/18 08:44:58;;;;;;;22.77;20.77;;;;;;;;;;5037032;28;20219;-76
2022/08/18 08:47:39;;;;;;;22.83;20.77;;;;;;;;;;5051252;28;20222;-75
2022/08/18 08:50:15;;;;;;;21.92;19.75;;;;;;;;;;5066143;28;20233;-75
2022/08/18 08:52:49;;;;;;;20.17;18.35;;;;;;;;;;5051749;28;20788;-76
2022/08/18 08:55:43;;;;;;;19.48;17.58;;;;;;;;;;5030087;28;20360;-76
2022/08/18 08:58:11;;;;;;;20.40;16.95;;;;;;;;;;5065254;28;20214;-76
2022/08/18 09:00:37;;;;;;;18.48;16.77;;;;;;;;;;5077879;28;20246;-75
2022/08/18 09:03:24;;;;;;;18.15;16.38;;;;;;;;;;5024557;28;20253;-75
2022/08/18 09:05:58;;;;;;;20.25;18.25;;;;;;;;;;5077358;28;20314;-75
2022/08/18 09:08:38;;;;;;;18.75;17.10;;;;;;;;;;5083915;28;20692;-74
2022/08/18 09:11:16;;;;;;;19.02;17.00;;;;;;;;;;5048706;28;20227;-76
2022/08/18 09:13:42;;;;;;;18.88;17.00;;;;;;;;;;5076676;28;20643;-76
2022/08/18 09:16:26;;;;;;;18.92;17.23;;;;;;;;;;5061808;28;20241;-76
2022/08/18 09:19:00;;;;;;;19.70;17.23;;;;;;;;;;5068086;28;20214;-75
2022/08/18 09:21:34;;;;;;;18.35;16.75;;;;;;;;;;5041502;28;20230;-76
2022/08/18 09:24:24;;;;;;;18.52;16.83;;;;;;;;;;5068504;28;20229;-76
2022/08/18 09:26:53;;;;;;;18.25;16.23;;;;;;;;;;5081286;28;20779;-74
2022/08/18 09:29:45;;;;;;;18.02;16.33;;;;;;;;;;5061402;28;20222;-76
2022/08/18 09:32:20;;;;;;;17.67;16.00;;;;;;;;;;5062621;28;20228;-75
2022/08/18 09:35:26;;;;;;;17.38;15.52;;;;;;;;;;5082037;28;20238;-74
2022/08/18 09:43:39;;;;;;;15.80;14.30;;;;;;;;;;5068940;28;20217;-75
2022/08/18 09:46:07;;;;;;;14.95;13.38;;;;;;;;;;5027393;28;20314;-75
2022/08/18 09:48:38;;;;;;;15.88;12.82;;;;;;;;;;5050258;28;20226;-75
2022/08/18 09:51:17;;;;;;;13.80;12.40;;;;;;;;;;5028740;28;20219;-75
2022/08/18 09:53:45;;;;;;;12.88;11.68;;;;;;;;;;5078940;28;20275;-76
2022/08/18 09:56:17;;;;;;;12.80;11.65;;;;;;;;;;5079076;28;20231;-75
2022/08/18 09:58:53;;;;;;;12.70;11.23;;;;;;;;;;5035385;28;20545;-75
2022/08/18 10:01:20;;;;;;;12.43;11.13;;;;;;;;;;5049330;28;20234;-75
2022/08/18 10:04:13;;;;;;;12.00;10.52;;;;;;;;;;5067162;28;20210;-76
2022/08/18 10:06:43;;;;;;;13.20;11.93;;;;;;;;;;5079814;28;20603;-75
2022/08/18 10:09:20;;;;;;;11.68;10.55;;;;;;;;;;5049376;28;20229;-75
2022/08/18 10:12:09;;;;;;;12.30;11.20;;;;;;;;;;5060402;28;20282;-75
2022/08/18 10:14:35;;;;;;;11.60;10.40;;;;;;;;;;5048905;28;20321;-75
2022/08/18 10:17:16;;;;;;;11.45;10.32;;;;;;;;;;5076689;28;20301;-75
2022/08/18 10:20:21;;;;;;;12.05;10.85;;;;;;;;;;5027317;28;20232;-76
2022/08/18 10:22:51;;;;;;;14.77;10.63;;;;;;;;;;5066196;28;20222;-75
2022/08/18 10:25:38;;;;;;;11.20;10.10;;;;;;;;;;5061376;28;20229;-75
2022/08/18 10:28:08;;;;;;;10.43;9.32;;;;;;;;;;5027504;28;20433;-75
2022/08/18 10:30:44;;;;;;;11.10;10.02;;;;;;;;;;5057309;28;20226;-75
2022/08/18 10:33:10;;;;;;;9.85;8.88;;;;;;;;;;5043929;28;20222;-75
2022/08/18 10:35:35;;;;;;;8.88;7.85;;;;;;;;;;5046802;28;20264;-76
2022/08/18 10:38:12;;;;;;;9.95;8.98;;;;;;;;;;5075745;28;20310;-76
2022/08/18 10:40:37;;;;;;;9.95;8.90;;;;;;;;;;5084821;28;20237;-76
2022/08/18 10:43:34;;;;;;;10.98;9.75;;;;;;;;;;5074381;28;20214;-78
2022/08/18 10:46:00;;;;;;;10.05;9.02;;;;;;;;;;5065853;28;20218;-76
2022/08/18 10:48:33;;;;;;;10.05;9.05;;;;;;;;;;5044836;28;20222;-75
2022/08/18 10:51:12;;;;;;;12.10;9.35;;;;;;;;;;5049326;28;20222;-77
2022/08/18 10:53:55;;;;;;;11.95;9.63;;;;;;;;;;5074382;28;20253;-76
2022/08/18 10:56:51;;;;;;;9.52;8.73;;;;;;;;;;5078170;28;20241;-77
2022/08/18 10:59:21;;;;;;;9.75;8.77;;;;;;;;;;5060126;28;20230;-76
2022/08/18 11:01:48;;;;;;;9.73;8.82;;;;;;;;;;5072746;28;20227;-76
2022/08/18 11:04:47;;;;;;;10.05;9.07;;;;;;;;;;5075888;28;20227;-76
2022/08/18 11:07:26;;;;;;;11.43;10.38;;;;;;;;;;5072165;28;20246;-76
2022/08/18 11:09:53;;;;;;;11.38;10.18;;;;;;;;;;5066359;28;20596;-77
2022/08/18 11:12:45;;;;;;;10.13;9.23;;;;;;;;;;5081158;28;20234;-76
2022/08/18 11:15:40;;;;;;;10.55;8.90;;;;;;;;;;5071683;28;20704;-77
2022/08/18 11:18:14;;;;;;;13.43;9.57;;;;;;;;;;5067572;28;20223;-76
2022/08/18 11:20:45;;;;;;;10.80;9.70;;;;;;;;;;5078310;28;20313;-76
2022/08/18 11:23:17;;;;;;;9.15;8.35;;;;;;;;;;5049767;28;20217;-76
2022/08/18 11:25:43;;;;;;;9.25;8.35;;;;;;;;;;5036876;28;20230;-76
2022/08/18 11:28:23;;;;;;;8.73;7.93;;;;;;;;;;5059608;28;20226;-76
2022/08/18 11:30:51;;;;;;;8.88;7.85;;;;;;;;;;5061088;28;20221;-76
2022/08/18 11:33:17;;;;;;;11.95;8.55;;;;;;;;;;5028128;28;20230;-75
2022/08/18 11:35:59;;;;;;;9.65;7.47;;;;;;;;;;5056652;28;20241;-75
2022/08/18 11:38:32;;;;;;;8.32;7.43;;;;;;;;;;5069745;28;20226;-75
2022/08/18 11:41:17;;;;;;;9.25;8.43;;;;;;;;;;5056149;28;20472;-75
2022/08/18 11:43:43;;;;;;;8.73;7.88;;;;;;;;;;5066434;28;20217;-75
2022/08/18 11:46:37;;;;;;;8.60;7.72;;;;;;;;;;5059015;28;20599;-75
2022/08/18 11:49:18;;;;;;;8.48;7.72;;;;;;;;;;5051553;28;20219;-75
2022/08/18 11:51:56;;;;;;;8.30;7.50;;;;;;;;;;5052563;28;20304;-75
2022/08/18 11:54:22;;;;;;;8.43;7.57;;;;;;;;;;5058945;28;20229;-75
2022/08/18 11:56:52;;;;;;;9.45;7.60;;;;;;;;;;5042583;28;20207;-75
2022/08/18 11:59:27;;;;;;;8.88;8.13;;;;;;;;;;5054205;28;20226;-73
2022/08/18 12:01:54;;;;;;;8.13;7.28;;;;;;;;;;5078106;28;20224;-76
2022/08/18 12:04:20;;;;;;;7.40;6.80;;;;;;;;;;5061664;28;20218;-75
2022/08/18 12:07:01;;;;;;;8.90;7.15;;;;;;;;;;5074961;28;20234;-74
2022/08/18 12:09:37;;;;;;;7.72;6.88;;;;;;;;;;5055522;28;20222;-74
2022/08/18 12:12:26;;;;;;;7.25;6.55;;;;;;;;;;5064943;28;20275;-74
2022/08/18 12:14:59;;;;;;;9.38;7.18;;;;;;;;;;5076539;28;20223;-75
2022/08/18 12:17:30;;;;;;;7.72;7.03;;;;;;;;;;5073845;28;20221;-74
2022/08/18 12:20:01;;;;;;;8.93;7.07;;;;;;;;;;5052401;28;20222;-74
2022/08/18 12:22:30;;;;;;;8.43;7.00;;;;;;;;;;5063139;28;20233;-75
2022/08/18 12:24:57;;;;;;;8.05;6.88;;;;;;;;;;5041819;28;20261;-75
2022/08/18 12:27:24;;;;;;;7.93;7.13;;;;;;;;;;5041584;28;20794;-76
2022/08/18 12:29:54;;;;;;;7.78;6.90;;;;;;;;;;5069159;28;20214;-75
2022/08/18 12:32:23;;;;;;;7.40;6.70;;;;;;;;;;5049881;28;20225;-75
2022/08/18 12:34:48;;;;;;;7.65;6.80;;;;;;;;;;5061129;28;20217;-75
2022/08/18 12:37:18;;;;;;;9.45;8.65;;;;;;;;;;5063026;28;20661;-76
2022/08/18 12:39:49;;;;;;;10.65;9.65;;;;;;;;;;5062635;28;20360;-75
2022/08/18 12:42:19;;;;;;;9.73;8.82;;;;;;;;;;5071571;28;20251;-75
2022/08/18 12:44:50;;;;;;;9.40;8.50;;;;;;;;;;5061389;28;20223;-73
2022/08/18 12:47:23;;;;;;;10.25;8.68;;;;;;;;;;5074469;28;20317;-75
2022/08/18 12:49:51;;;;;;;9.80;8.80;;;;;;;;;;5062624;28;20246;-74
2022/08/18 12:52:20;;;;;;;9.98;8.88;;;;;;;;;;5068976;28;20276;-74
2022/08/18 12:54:48;;;;;;;9.98;9.00;;;;;;;;;;5045254;28;20355;-74
2022/08/18 12:57:22;;;;;;;8.50;7.68;;;;;;;;;;5042203;28;20359;-74
2022/08/18 12:59:48;;;;;;;7.43;6.72;;;;;;;;;;5053595;28;20222;-75
2022/08/18 13:02:16;;;;;;;7.47;6.78;;;;;;;;;;5059830;28;20715;-74
2022/08/18 13:04:48;;;;;;;6.50;6.00;;;;;;;;;;5061310;28;20218;-74
2022/08/18 13:07:16;;;;;;;6.72;6.13;;;;;;;;;;5073458;28;20215;-74
2022/08/18 13:09:47;;;;;;;8.05;6.07;;;;;;;;;;5046997;28;20230;-74
2022/08/18 13:12:18;;;;;;;6.65;6.15;;;;;;;;;;5043896;28;20222;-76
2022/08/18 13:14:46;;;;;;;6.70;6.10;;;;;;;;;;5061007;28;20276;-75
2022/08/18 13:17:14;;;;;;;6.53;5.85;;;;;;;;;;5080622;28;20266;-74
2022/08/18 13:19:43;;;;;;;6.97;6.32;;;;;;;;;;5045347;28;20244;-75
2022/08/18 13:22:11;;;;;;;7.30;6.70;;;;;;;;;;5059526;28;20704;-74
2022/08/18 13:24:39;;;;;;;6.75;6.15;;;;;;;;;;5077295;28;20674;-74
2022/08/18 13:27:04;;;;;;;6.05;5.53;;;;;;;;;;5044438;28;20269;-74
2022/08/18 13:29:30;;;;;;;7.18;5.88;;;;;;;;;;5045184;28;20878;-75
2022/08/18 13:31:58;;;;;;;7.20;6.18;;;;;;;;;;5079661;28;20219;-75
2022/08/18 13:34:27;;;;;;;6.15;5.50;;;;;;;;;;5083800;28;20696;-76
2022/08/18 13:36:53;;;;;;;6.28;5.30;;;;;;;;;;5062915;28;20263;-76
2022/08/18 13:39:20;;;;;;;6.57;5.97;;;;;;;;;;5057842;28;20226;-76
2022/08/18 13:41:50;;;;;;;5.97;5.47;;;;;;;;;;5050322;28;20710;-76
2022/08/18 13:44:19;;;;;;;5.90;5.10;;;;;;;;;;5045080;28;20226;-75
2022/08/18 13:46:45;;;;;;;5.63;5.13;;;;;;;;;;5065207;28;21076;-75
2022/08/18 13:49:14;;;;;;;5.78;5.32;;;;;;;;;;5080771;28;20627;-75
2022/08/18 13:51:42;;;;;;;5.95;5.35;;;;;;;;;;5059315;28;20314;-76
2022/08/18 13:54:21;;;;;;;5.13;4.72;;;;;;;;;;5049636;28;20214;-75
2022/08/18 13:56:52;;;;;;;5.68;5.18;;;;;;;;;;5049034;28;20226;-76
2022/08/18 13:59:19;;;;;;;7.47;5.00;;;;;;;;;;5067523;28;20317;-75
2022/08/18 14:01:45;;;;;;;5.38;4.95;;;;;;;;;;5039833;28;20296;-75
2022/08/18 14:04:13;;;;;;;6.43;4.90;;;;;;;;;;5070691;28;20704;-75
2022/08/18 14:06:41;;;;;;;5.10;4.70;;;;;;;;;;5061886;28;20601;-75
2022/08/18 14:09:10;;;;;;;5.07;4.68;;;;;;;;;;5061527;28;20260;-75
2022/08/18 14:11:38;;;;;;;5.43;4.90;;;;;;;;;;5073746;28;20657;-75
2022/08/18 14:14:06;;;;;;;5.85;4.55;;;;;;;;;;5064487;28;20596;-75
2022/08/18 14:16:36;;;;;;;5.60;5.07;;;;;;;;;;5056564;28;20225;-74
2022/08/18 14:27:29;;;;;;;5.15;4.65;;;;;;;;;;5049265;28;20226;-75
2022/08/18 14:29:58;;;;;;;4.50;4.18;;;;;;;;;;5060512;28;20210;-74
2022/08/18 14:32:28;;;;;;;6.30;5.20;;;;;;;;;;5060151;28;20221;-75
2022/08/18 14:34:57;;;;;;;5.40;4.90;;;;;;;;;;5044831;28;20240;-74
2022/08/18 14:37:26;;;;;;;5.90;4.20;;;;;;;;;;5045665;28;20832;-75
2022/08/18 14:39:56;;;;;;;5.03;4.63;;;;;;;;;;5045117;28;20297;-76
2022/08/18 14:42:27;;;;;;;4.72;4.32;;;;;;;;;;5050627;28;20891;-74
2022/08/18 14:44:57;;;;;;;5.00;4.50;;;;;;;;;;5072122;28;20219;-74
2022/08/18 14:47:25;;;;;;;4.38;4.05;;;;;;;;;;5043638;28;20226;-75
2022/08/18 14:49:55;;;;;;;5.20;4.25;;;;;;;;;;5041502;28;20379;-75
2022/08/18 14:52:22;;;;;;;4.60;4.20;;;;;;;;;;5048474;28;20230;-75
2022/08/18 14:54:50;;;;;;;5.43;4.03;;;;;;;;;;5047817;28;20360;-74
2022/08/18 14:57:16;;;;;;;4.32;3.92;;;;;;;;;;5079614;28;20286;-76
2022/08/18 14:59:43;;;;;;;4.93;4.47;;;;;;;;;;5073280;28;20221;-75
2022/08/18 15:02:09;;;;;;;5.72;4.25;;;;;;;;;;5061376;28;20654;-75
2022/08/18 15:04:36;;;;;;;6.78;4.00;;;;;;;;;;5066368;28;20220;-75
2022/08/18 15:07:01;;;;;;;4.80;4.32;;;;;;;;;;5058525;28;20356;-75
2022/08/18 15:09:29;;;;;;;5.53;4.25;;;;;;;;;;5071840;28;20213;-75
2022/08/18 15:11:57;;;;;;;6.25;4.15;;;;;;;;;;5058691;28;20708;-75
2022/08/18 15:14:25;;;;;;;4.85;4.38;;;;;;;;;;5064077;28;20215;-75
2022/08/18 15:16:55;;;;;;;7.47;4.53;;;;;;;;;;5044838;28;20225;-75
2022/08/18 15:19:26;;;;;;;5.00;4.57;;;;;;;;;;5064904;28;20218;-75
2022/08/18 15:27:38;;;;;;;5.57;5.05;;;;;;;;;;5050907;28;20646;-76
2022/08/18 15:30:09;;;;;;;5.22;4.72;;;;;;;;;;5071119;28;20709;-75